Airfield :
LOGIN :

Register | Disclaimer

   EN    FR    IT 

 










Legend :    VFR   Marginal VFR   IFR   Intensive IFR   Very Intensive IFR
Visi :
Ceiling :
>= 8 km
>= 3000ft
5 to 8 km
1000 to 3000 ft
1500m to 5 km
500 to 1000 ft
800 to 1500m
200 to 500 ft
< 800m
< 200 ft
Symbols :   Thunderstorms  Fog  Heavy snow  Heavy precipitations  Wind > 20 kt
SIGMETs :     Misc.  Thunderstorms  Icing  Turbulence  Mountain Waves  Volcanic Ashes






- Airport Elevation : 19 ft
- IATA code : BEB


EGPL - Benbecula

CURRENT METAR :
  • 250250Z AUTO 01015KT 9999 FEW025/// OVC031/// 10/06 Q1025

EXPIRED METARs :
  • 250220Z AUTO 01016KT 9999 OVC038/// 10/05 Q1025
  • 250150Z AUTO 01015KT 9999 OVC034/// 10/06 Q1025
  • 250120Z AUTO 01015KT 9999 OVC036/// 10/06 Q1025
  • 250050Z AUTO 36015KT 9999 BKN036/// 10/06 Q1025
  • 250020Z AUTO 01017KT 9999 OVC033/// 10/06 Q1025

TAF TAF EGPL
Valid from the 25 at 03:00 until the 25 at 12:00 UTC


250154Z 2503/2512 36015KT 9999 SCT030
PROB30
TEMPO 2503/2512 01018G28KT
ATIS : +44 1870 604 818



MET'MAP, your aeronautical weather chart ! - Copyright ORBIFLY December 2007 - Disclaimer

ORBIFLY MET'MAP TEAM :

Programming & Development : Alexandra Zaïnal
Concept & original design : Baudouin d'Aumeries
Assistance for programming : Marc-Olivier Méhu
Technical & hardware support : Manuel Goepfert

Contact : metmap@orbifly.com




SOURCES & CREDITS :

   NOAA